sensor_id;sensor_type;location;lat;lon;timestamp;P1;durP1;ratioP1;P2;durP2;ratioP2
54937;SDS011;52756;52.826;6.214;2022-10-13T00:01:22;14.63;;;9.20;;
54937;SDS011;52756;52.826;6.214;2022-10-13T00:03:49;15.15;;;10.45;;
54937;SDS011;52756;52.826;6.214;2022-10-13T00:06:16;12.82;;;9.15;;
54937;SDS011;52756;52.826;6.214;2022-10-13T00:08:43;12.80;;;8.07;;
54937;SDS011;52756;52.826;6.214;2022-10-13T00:13:36;20.40;;;12.55;;
54937;SDS011;52756;52.826;6.214;2022-10-13T00:16:02;19.92;;;11.48;;
54937;SDS011;52756;52.826;6.214;2022-10-13T00:18:28;23.30;;;11.68;;
54937;SDS011;52756;52.826;6.214;2022-10-13T00:20:54;19.48;;;11.35;;
54937;SDS011;52756;52.826;6.214;2022-10-13T00:23:19;21.20;;;11.52;;
54937;SDS011;52756;52.826;6.214;2022-10-13T00:25:46;16.92;;;11.38;;
54937;SDS011;52756;52.826;6.214;2022-10-13T00:28:14;21.25;;;12.35;;
54937;SDS011;52756;52.826;6.214;2022-10-13T00:30:41;18.38;;;11.85;;
54937;SDS011;52756;52.826;6.214;2022-10-13T00:33:07;17.38;;;10.90;;
54937;SDS011;52756;52.826;6.214;2022-10-13T00:35:38;26.70;;;13.20;;
54937;SDS011;52756;52.826;6.214;2022-10-13T00:40:42;19.52;;;11.15;;
54937;SDS011;52756;52.826;6.214;2022-10-13T00:43:19;20.38;;;11.73;;
54937;SDS011;52756;52.826;6.214;2022-10-13T00:45:45;17.70;;;10.80;;
54937;SDS011;52756;52.826;6.214;2022-10-13T00:48:13;20.35;;;11.32;;
54937;SDS011;52756;52.826;6.214;2022-10-13T00:50:40;21.15;;;11.55;;
54937;SDS011;52756;52.826;6.214;2022-10-13T00:53:07;16.02;;;10.98;;
54937;SDS011;52756;52.826;6.214;2022-10-13T00:55:36;23.45;;;12.63;;
54937;SDS011;52756;52.826;6.214;2022-10-13T00:58:04;19.75;;;11.98;;
54937;SDS011;52756;52.826;6.214;2022-10-13T01:00:32;16.48;;;10.23;;
54937;SDS011;52756;52.826;6.214;2022-10-13T01:02:59;19.05;;;9.57;;
54937;SDS011;52756;52.826;6.214;2022-10-13T01:05:28;14.48;;;8.63;;
54937;SDS011;52756;52.826;6.214;2022-10-13T01:07:54;18.73;;;12.32;;
54937;SDS011;52756;52.826;6.214;2022-10-13T01:10:28;20.83;;;12.85;;
54937;SDS011;52756;52.826;6.214;2022-10-13T01:13:22;14.25;;;11.05;;
54937;SDS011;52756;52.826;6.214;2022-10-13T01:15:57;19.92;;;12.10;;
54937;SDS011;52756;52.826;6.214;2022-10-13T01:18:35;17.95;;;11.15;;
54937;SDS011;52756;52.826;6.214;2022-10-13T01:36:14;22.35;;;13.68;;
54937;SDS011;52756;52.826;6.214;2022-10-13T01:43:50;26.17;;;14.55;;
54937;SDS011;52756;52.826;6.214;2022-10-13T01:48:51;18.80;;;12.75;;
54937;SDS011;52756;52.826;6.214;2022-10-13T01:51:20;18.13;;;12.80;;
54937;SDS011;52756;52.826;6.214;2022-10-13T01:53:47;19.27;;;12.23;;
54937;SDS011;52756;52.826;6.214;2022-10-13T01:56:13;15.98;;;10.77;;
54937;SDS011;52756;52.826;6.214;2022-10-13T01:58:39;18.00;;;10.95;;
54937;SDS011;52756;52.826;6.214;2022-10-13T02:01:23;18.15;;;12.38;;
54937;SDS011;52756;52.826;6.214;2022-10-13T02:06:56;14.60;;;10.65;;
54937;SDS011;52756;52.826;6.214;2022-10-13T02:12:08;22.67;;;13.75;;
54937;SDS011;52756;52.826;6.214;2022-10-13T02:14:49;19.55;;;13.55;;
54937;SDS011;52756;52.826;6.214;2022-10-13T02:17:17;16.73;;;12.32;;
54937;SDS011;52756;52.826;6.214;2022-10-13T02:19:44;20.38;;;13.35;;
54937;SDS011;52756;52.826;6.214;2022-10-13T02:22:10;16.80;;;11.80;;
54937;SDS011;52756;52.826;6.214;2022-10-13T02:24:38;19.88;;;11.60;;
54937;SDS011;52756;52.826;6.214;2022-10-13T02:27:05;13.80;;;9.55;;
54937;SDS011;52756;52.826;6.214;2022-10-13T02:29:31;16.70;;;11.30;;
54937;SDS011;52756;52.826;6.214;2022-10-13T02:31:57;23.58;;;13.32;;
54937;SDS011;52756;52.826;6.214;2022-10-13T02:34:23;19.75;;;12.70;;
54937;SDS011;52756;52.826;6.214;2022-10-13T02:36:48;19.05;;;12.15;;
54937;SDS011;52756;52.826;6.214;2022-10-13T02:39:15;20.40;;;13.05;;
54937;SDS011;52756;52.826;6.214;2022-10-13T02:41:42;21.10;;;13.50;;
54937;SDS011;52756;52.826;6.214;2022-10-13T02:44:08;22.23;;;14.63;;
54937;SDS011;52756;52.826;6.214;2022-10-13T02:46:33;24.85;;;13.38;;
54937;SDS011;52756;52.826;6.214;2022-10-13T02:48:59;24.50;;;14.75;;
54937;SDS011;52756;52.826;6.214;2022-10-13T02:51:25;23.10;;;15.38;;
54937;SDS011;52756;52.826;6.214;2022-10-13T02:53:51;21.52;;;14.30;;
54937;SDS011;52756;52.826;6.214;2022-10-13T02:56:17;19.75;;;14.90;;
54937;SDS011;52756;52.826;6.214;2022-10-13T02:58:43;22.17;;;14.07;;
54937;SDS011;52756;52.826;6.214;2022-10-13T03:01:09;23.52;;;13.15;;
54937;SDS011;52756;52.826;6.214;2022-10-13T03:03:37;22.20;;;14.65;;
54937;SDS011;52756;52.826;6.214;2022-10-13T03:06:03;20.75;;;15.05;;
54937;SDS011;52756;52.826;6.214;2022-10-13T03:08:31;23.52;;;15.88;;
54937;SDS011;52756;52.826;6.214;2022-10-13T03:10:58;27.95;;;15.63;;
54937;SDS011;52756;52.826;6.214;2022-10-13T03:13:23;17.38;;;12.27;;
54937;SDS011;52756;52.826;6.214;2022-10-13T03:15:49;17.85;;;13.90;;
54937;SDS011;52756;52.826;6.214;2022-10-13T03:18:15;18.52;;;14.18;;
54937;SDS011;52756;52.826;6.214;2022-10-13T03:20:41;20.05;;;15.10;;
54937;SDS011;52756;52.826;6.214;2022-10-13T03:23:07;24.73;;;15.65;;
54937;SDS011;52756;52.826;6.214;2022-10-13T03:25:32;20.15;;;14.35;;
54937;SDS011;52756;52.826;6.214;2022-10-13T03:27:59;23.88;;;15.10;;
54937;SDS011;52756;52.826;6.214;2022-10-13T03:30:25;20.27;;;14.30;;
54937;SDS011;52756;52.826;6.214;2022-10-13T03:32:51;23.52;;;14.05;;
54937;SDS011;52756;52.826;6.214;2022-10-13T03:35:17;22.48;;;15.10;;
54937;SDS011;52756;52.826;6.214;2022-10-13T03:37:42;22.95;;;16.27;;
54937;SDS011;52756;52.826;6.214;2022-10-13T03:40:08;23.98;;;15.55;;
54937;SDS011;52756;52.826;6.214;2022-10-13T03:42:35;24.77;;;15.77;;
54937;SDS011;52756;52.826;6.214;2022-10-13T03:45:02;24.90;;;16.45;;
54937;SDS011;52756;52.826;6.214;2022-10-13T03:47:28;22.20;;;15.20;;
54937;SDS011;52756;52.826;6.214;2022-10-13T03:49:55;22.83;;;15.82;;
54937;SDS011;52756;52.826;6.214;2022-10-13T03:52:21;25.30;;;16.17;;
54937;SDS011;52756;52.826;6.214;2022-10-13T03:54:47;28.02;;;17.20;;
54937;SDS011;52756;52.826;6.214;2022-10-13T03:57:12;20.85;;;14.57;;
54937;SDS011;52756;52.826;6.214;2022-10-13T03:59:38;23.33;;;15.82;;
54937;SDS011;52756;52.826;6.214;2022-10-13T04:02:05;23.70;;;16.35;;
54937;SDS011;52756;52.826;6.214;2022-10-13T04:04:31;20.52;;;13.90;;
54937;SDS011;52756;52.826;6.214;2022-10-13T04:06:57;15.30;;;11.55;;
54937;SDS011;52756;52.826;6.214;2022-10-13T04:09:23;21.08;;;15.63;;
54937;SDS011;52756;52.826;6.214;2022-10-13T04:11:51;21.27;;;14.32;;
54937;SDS011;52756;52.826;6.214;2022-10-13T04:14:17;23.73;;;17.38;;
54937;SDS011;52756;52.826;6.214;2022-10-13T04:16:44;18.83;;;13.70;;
54937;SDS011;52756;52.826;6.214;2022-10-13T04:19:11;18.90;;;14.02;;
54937;SDS011;52756;52.826;6.214;2022-10-13T04:21:38;24.42;;;16.58;;
54937;SDS011;52756;52.826;6.214;2022-10-13T04:24:05;19.60;;;13.95;;
54937;SDS011;52756;52.826;6.214;2022-10-13T04:26:32;25.52;;;16.27;;
54937;SDS011;52756;52.826;6.214;2022-10-13T04:29:00;27.50;;;17.98;;
54937;SDS011;52756;52.826;6.214;2022-10-13T04:31:28;19.75;;;14.98;;
54937;SDS011;52756;52.826;6.214;2022-10-13T04:33:55;18.02;;;13.57;;
54937;SDS011;52756;52.826;6.214;2022-10-13T04:36:21;17.42;;;13.52;;
54937;SDS011;52756;52.826;6.214;2022-10-13T04:38:47;21.33;;;15.05;;
54937;SDS011;52756;52.826;6.214;2022-10-13T04:41:13;25.45;;;16.10;;
54937;SDS011;52756;52.826;6.214;2022-10-13T04:43:40;24.73;;;17.95;;
54937;SDS011;52756;52.826;6.214;2022-10-13T04:46:07;24.40;;;16.08;;
54937;SDS011;52756;52.826;6.214;2022-10-13T04:48:36;25.30;;;16.98;;
54937;SDS011;52756;52.826;6.214;2022-10-13T04:51:03;26.88;;;17.98;;
54937;SDS011;52756;52.826;6.214;2022-10-13T04:53:31;24.42;;;17.77;;
54937;SDS011;52756;52.826;6.214;2022-10-13T04:56:00;19.38;;;14.75;;
54937;SDS011;52756;52.826;6.214;2022-10-13T04:58:28;23.30;;;16.50;;
54937;SDS011;52756;52.826;6.214;2022-10-13T05:00:54;24.73;;;16.75;;
54937;SDS011;52756;52.826;6.214;2022-10-13T05:03:20;25.50;;;17.13;;
54937;SDS011;52756;52.826;6.214;2022-10-13T05:05:46;25.20;;;17.73;;
54937;SDS011;52756;52.826;6.214;2022-10-13T05:08:11;26.70;;;18.20;;
54937;SDS011;52756;52.826;6.214;2022-10-13T05:10:37;21.17;;;16.17;;
54937;SDS011;52756;52.826;6.214;2022-10-13T05:13:03;23.08;;;17.30;;
54937;SDS011;52756;52.826;6.214;2022-10-13T05:15:28;25.20;;;17.25;;
54937;SDS011;52756;52.826;6.214;2022-10-13T05:17:54;22.27;;;15.77;;
54937;SDS011;52756;52.826;6.214;2022-10-13T05:20:20;22.40;;;16.50;;
54937;SDS011;52756;52.826;6.214;2022-10-13T05:22:45;23.25;;;17.30;;
54937;SDS011;52756;52.826;6.214;2022-10-13T05:25:11;25.25;;;17.25;;
54937;SDS011;52756;52.826;6.214;2022-10-13T05:27:37;21.77;;;15.93;;
54937;SDS011;52756;52.826;6.214;2022-10-13T05:30:02;25.70;;;17.60;;
54937;SDS011;52756;52.826;6.214;2022-10-13T05:32:28;23.17;;;16.80;;
54937;SDS011;52756;52.826;6.214;2022-10-13T05:34:54;21.98;;;16.35;;
54937;SDS011;52756;52.826;6.214;2022-10-13T05:37:20;24.90;;;17.15;;
54937;SDS011;52756;52.826;6.214;2022-10-13T05:39:46;24.75;;;16.80;;
54937;SDS011;52756;52.826;6.214;2022-10-13T05:42:12;27.50;;;18.27;;
54937;SDS011;52756;52.826;6.214;2022-10-13T05:44:38;26.10;;;18.13;;
54937;SDS011;52756;52.826;6.214;2022-10-13T05:47:04;24.27;;;18.23;;
54937;SDS011;52756;52.826;6.214;2022-10-13T05:49:30;25.83;;;17.33;;
54937;SDS011;52756;52.826;6.214;2022-10-13T05:51:56;24.00;;;17.08;;
54937;SDS011;52756;52.826;6.214;2022-10-13T05:59:28;24.83;;;18.45;;
54937;SDS011;52756;52.826;6.214;2022-10-13T06:01:57;27.23;;;18.77;;
54937;SDS011;52756;52.826;6.214;2022-10-13T06:04:27;23.85;;;17.27;;
54937;SDS011;52756;52.826;6.214;2022-10-13T06:07:03;25.52;;;18.60;;
54937;SDS011;52756;52.826;6.214;2022-10-13T06:09:31;27.60;;;19.02;;
54937;SDS011;52756;52.826;6.214;2022-10-13T06:11:59;28.45;;;18.25;;
54937;SDS011;52756;52.826;6.214;2022-10-13T06:14:25;25.10;;;19.85;;
54937;SDS011;52756;52.826;6.214;2022-10-13T06:16:51;25.17;;;17.40;;
54937;SDS011;52756;52.826;6.214;2022-10-13T06:19:16;22.17;;;16.67;;
54937;SDS011;52756;52.826;6.214;2022-10-13T06:21:42;24.80;;;17.67;;
54937;SDS011;52756;52.826;6.214;2022-10-13T06:24:08;25.27;;;17.23;;
54937;SDS011;52756;52.826;6.214;2022-10-13T06:26:34;23.42;;;17.17;;
54937;SDS011;52756;52.826;6.214;2022-10-13T06:28:59;24.30;;;17.27;;
54937;SDS011;52756;52.826;6.214;2022-10-13T06:31:25;26.98;;;18.85;;
54937;SDS011;52756;52.826;6.214;2022-10-13T06:33:51;23.80;;;17.90;;
54937;SDS011;52756;52.826;6.214;2022-10-13T06:36:16;26.10;;;18.85;;
54937;SDS011;52756;52.826;6.214;2022-10-13T06:38:42;25.90;;;18.20;;
54937;SDS011;52756;52.826;6.214;2022-10-13T06:41:08;29.85;;;18.83;;
54937;SDS011;52756;52.826;6.214;2022-10-13T06:43:33;31.58;;;19.63;;
54937;SDS011;52756;52.826;6.214;2022-10-13T06:45:59;24.77;;;18.50;;
54937;SDS011;52756;52.826;6.214;2022-10-13T06:48:25;25.83;;;17.92;;
54937;SDS011;52756;52.826;6.214;2022-10-13T06:50:52;25.10;;;18.33;;
54937;SDS011;52756;52.826;6.214;2022-10-13T06:53:18;23.85;;;16.90;;
54937;SDS011;52756;52.826;6.214;2022-10-13T06:55:44;27.67;;;19.15;;
54937;SDS011;52756;52.826;6.214;2022-10-13T06:58:10;26.63;;;18.42;;
54937;SDS011;52756;52.826;6.214;2022-10-13T07:00:36;24.80;;;18.17;;
54937;SDS011;52756;52.826;6.214;2022-10-13T07:03:03;25.85;;;19.90;;
54937;SDS011;52756;52.826;6.214;2022-10-13T07:05:29;29.85;;;19.35;;
54937;SDS011;52756;52.826;6.214;2022-10-13T07:07:55;28.02;;;19.48;;
54937;SDS011;52756;52.826;6.214;2022-10-13T07:10:21;28.70;;;18.70;;
54937;SDS011;52756;52.826;6.214;2022-10-13T07:12:47;28.80;;;20.20;;
54937;SDS011;52756;52.826;6.214;2022-10-13T07:15:13;26.60;;;18.30;;
54937;SDS011;52756;52.826;6.214;2022-10-13T07:17:39;24.40;;;19.35;;
54937;SDS011;52756;52.826;6.214;2022-10-13T07:20:04;26.15;;;19.15;;
54937;SDS011;52756;52.826;6.214;2022-10-13T07:22:31;25.98;;;17.00;;
54937;SDS011;52756;52.826;6.214;2022-10-13T07:24:56;26.35;;;18.95;;
54937;SDS011;52756;52.826;6.214;2022-10-13T07:27:22;26.45;;;20.17;;
54937;SDS011;52756;52.826;6.214;2022-10-13T07:29:48;29.38;;;18.88;;
54937;SDS011;52756;52.826;6.214;2022-10-13T07:32:14;28.80;;;17.90;;
54937;SDS011;52756;52.826;6.214;2022-10-13T07:34:40;27.50;;;19.27;;
54937;SDS011;52756;52.826;6.214;2022-10-13T07:37:05;32.35;;;19.70;;
54937;SDS011;52756;52.826;6.214;2022-10-13T07:39:31;29.88;;;19.50;;
54937;SDS011;52756;52.826;6.214;2022-10-13T07:41:57;28.25;;;19.05;;
54937;SDS011;52756;52.826;6.214;2022-10-13T07:44:22;28.35;;;19.90;;
54937;SDS011;52756;52.826;6.214;2022-10-13T07:46:48;27.13;;;19.92;;
54937;SDS011;52756;52.826;6.214;2022-10-13T07:49:14;30.63;;;20.35;;
54937;SDS011;52756;52.826;6.214;2022-10-13T07:51:39;28.15;;;20.33;;
54937;SDS011;52756;52.826;6.214;2022-10-13T07:54:05;24.38;;;19.02;;
54937;SDS011;52756;52.826;6.214;2022-10-13T07:56:31;22.30;;;15.68;;
54937;SDS011;52756;52.826;6.214;2022-10-13T07:58:57;25.92;;;18.83;;
54937;SDS011;52756;52.826;6.214;2022-10-13T08:01:22;27.17;;;18.52;;
54937;SDS011;52756;52.826;6.214;2022-10-13T08:03:48;25.92;;;19.60;;
54937;SDS011;52756;52.826;6.214;2022-10-13T08:06:14;26.63;;;20.30;;
54937;SDS011;52756;52.826;6.214;2022-10-13T08:08:39;30.92;;;20.83;;
54937;SDS011;52756;52.826;6.214;2022-10-13T08:11:10;27.08;;;19.33;;
54937;SDS011;52756;52.826;6.214;2022-10-13T08:13:37;26.13;;;17.73;;
54937;SDS011;52756;52.826;6.214;2022-10-13T08:16:03;28.88;;;20.83;;
54937;SDS011;52756;52.826;6.214;2022-10-13T08:18:28;33.85;;;20.92;;
54937;SDS011;52756;52.826;6.214;2022-10-13T08:20:54;29.45;;;19.05;;
54937;SDS011;52756;52.826;6.214;2022-10-13T08:23:23;26.45;;;20.00;;
54937;SDS011;52756;52.826;6.214;2022-10-13T08:25:49;26.95;;;20.27;;
54937;SDS011;52756;52.826;6.214;2022-10-13T08:28:16;24.00;;;18.63;;
54937;SDS011;52756;52.826;6.214;2022-10-13T08:30:47;29.13;;;20.88;;
54937;SDS011;52756;52.826;6.214;2022-10-13T08:33:12;28.30;;;20.33;;
54937;SDS011;52756;52.826;6.214;2022-10-13T08:35:38;31.58;;;21.30;;
54937;SDS011;52756;52.826;6.214;2022-10-13T08:38:04;30.60;;;21.27;;
54937;SDS011;52756;52.826;6.214;2022-10-13T08:40:29;30.95;;;21.42;;
54937;SDS011;52756;52.826;6.214;2022-10-13T08:42:56;35.00;;;22.58;;
54937;SDS011;52756;52.826;6.214;2022-10-13T08:45:24;29.95;;;21.45;;
54937;SDS011;52756;52.826;6.214;2022-10-13T08:47:53;32.03;;;20.65;;
54937;SDS011;52756;52.826;6.214;2022-10-13T08:50:31;28.83;;;21.00;;
54937;SDS011;52756;52.826;6.214;2022-10-13T08:53:00;25.73;;;19.02;;
54937;SDS011;52756;52.826;6.214;2022-10-13T08:55:56;29.27;;;21.20;;
54937;SDS011;52756;52.826;6.214;2022-10-13T08:58:32;24.70;;;19.50;;
54937;SDS011;52756;52.826;6.214;2022-10-13T09:03:40;26.30;;;20.27;;
54937;SDS011;52756;52.826;6.214;2022-10-13T09:06:14;25.98;;;19.65;;
54937;SDS011;52756;52.826;6.214;2022-10-13T09:09:03;23.20;;;19.88;;
54937;SDS011;52756;52.826;6.214;2022-10-13T09:11:32;27.88;;;20.48;;
54937;SDS011;52756;52.826;6.214;2022-10-13T09:14:01;27.67;;;20.90;;
54937;SDS011;52756;52.826;6.214;2022-10-13T09:16:32;25.95;;;20.17;;
54937;SDS011;52756;52.826;6.214;2022-10-13T09:19:16;26.20;;;20.40;;
54937;SDS011;52756;52.826;6.214;2022-10-13T09:21:50;30.38;;;21.38;;
54937;SDS011;52756;52.826;6.214;2022-10-13T09:24:19;27.40;;;22.23;;
54937;SDS011;52756;52.826;6.214;2022-10-13T09:26:48;27.75;;;20.63;;
54937;SDS011;52756;52.826;6.214;2022-10-13T09:29:23;26.02;;;20.77;;
54937;SDS011;52756;52.826;6.214;2022-10-13T09:31:50;26.77;;;20.52;;
54937;SDS011;52756;52.826;6.214;2022-10-13T09:34:31;25.38;;;18.75;;
54937;SDS011;52756;52.826;6.214;2022-10-13T09:36:58;28.02;;;21.98;;
54937;SDS011;52756;52.826;6.214;2022-10-13T09:39:29;28.15;;;21.80;;
54937;SDS011;52756;52.826;6.214;2022-10-13T09:44:58;26.08;;;21.42;;
54937;SDS011;52756;52.826;6.214;2022-10-13T09:47:27;26.73;;;20.77;;
54937;SDS011;52756;52.826;6.214;2022-10-13T09:52:40;25.92;;;20.13;;
54937;SDS011;52756;52.826;6.214;2022-10-13T09:55:24;27.77;;;20.83;;
54937;SDS011;52756;52.826;6.214;2022-10-13T09:57:52;30.10;;;20.45;;
54937;SDS011;52756;52.826;6.214;2022-10-13T10:00:26;26.02;;;20.75;;
54937;SDS011;52756;52.826;6.214;2022-10-13T10:02:54;25.60;;;19.60;;
54937;SDS011;52756;52.826;6.214;2022-10-13T10:05:30;32.17;;;22.27;;
54937;SDS011;52756;52.826;6.214;2022-10-13T10:08:17;26.38;;;22.58;;
54937;SDS011;52756;52.826;6.214;2022-10-13T10:11:11;29.50;;;22.23;;
54937;SDS011;52756;52.826;6.214;2022-10-13T10:13:40;28.88;;;21.13;;
54937;SDS011;52756;52.826;6.214;2022-10-13T10:16:40;26.77;;;20.67;;
54937;SDS011;52756;52.826;6.214;2022-10-13T10:19:05;23.52;;;19.38;;
54937;SDS011;52756;52.826;6.214;2022-10-13T10:27:34;28.73;;;21.60;;
54937;SDS011;52756;52.826;6.214;2022-10-13T10:30:11;28.17;;;21.80;;
54937;SDS011;52756;52.826;6.214;2022-10-13T10:32:45;27.90;;;22.80;;
54937;SDS011;52756;52.826;6.214;2022-10-13T10:40:34;29.88;;;25.10;;
54937;SDS011;52756;52.826;6.214;2022-10-13T10:43:25;26.60;;;21.80;;
54937;SDS011;52756;52.826;6.214;2022-10-13T10:46:20;29.02;;;23.35;;
54937;SDS011;52756;52.826;6.214;2022-10-13T10:48:48;24.48;;;20.67;;
54937;SDS011;52756;52.826;6.214;2022-10-13T10:51:27;25.95;;;22.73;;
54937;SDS011;52756;52.826;6.214;2022-10-13T10:53:59;24.30;;;20.45;;
54937;SDS011;52756;52.826;6.214;2022-10-13T10:57:12;30.98;;;22.85;;
54937;SDS011;52756;52.826;6.214;2022-10-13T11:02:43;26.52;;;21.95;;
54937;SDS011;52756;52.826;6.214;2022-10-13T11:05:23;24.17;;;21.58;;
54937;SDS011;52756;52.826;6.214;2022-10-13T11:10:16;35.63;;;28.00;;
54937;SDS011;52756;52.826;6.214;2022-10-13T11:15:27;34.05;;;28.67;;
54937;SDS011;52756;52.826;6.214;2022-10-13T11:17:55;31.75;;;27.50;;
54937;SDS011;52756;52.826;6.214;2022-10-13T11:23:24;32.50;;;25.95;;
54937;SDS011;52756;52.826;6.214;2022-10-13T11:30:55;32.90;;;25.77;;
54937;SDS011;52756;52.826;6.214;2022-10-13T11:38:52;35.17;;;25.60;;
54937;SDS011;52756;52.826;6.214;2022-10-13T11:42:23;32.70;;;27.70;;
54937;SDS011;52756;52.826;6.214;2022-10-13T11:52:54;38.58;;;29.75;;
54937;SDS011;52756;52.826;6.214;2022-10-13T11:55:38;33.60;;;28.90;;
54937;SDS011;52756;52.826;6.214;2022-10-13T11:58:19;29.40;;;25.58;;
54937;SDS011;52756;52.826;6.214;2022-10-13T12:01:05;28.58;;;25.48;;
54937;SDS011;52756;52.826;6.214;2022-10-13T12:03:37;33.15;;;27.70;;
54937;SDS011;52756;52.826;6.214;2022-10-13T12:06:05;30.83;;;25.83;;
54937;SDS011;52756;52.826;6.214;2022-10-13T12:08:47;27.23;;;22.45;;
54937;SDS011;52756;52.826;6.214;2022-10-13T12:11:30;29.65;;;26.02;;
54937;SDS011;52756;52.826;6.214;2022-10-13T12:13:59;29.58;;;24.98;;
54937;SDS011;52756;52.826;6.214;2022-10-13T12:16:25;28.55;;;24.88;;
54937;SDS011;52756;52.826;6.214;2022-10-13T12:18:52;27.05;;;23.65;;
54937;SDS011;52756;52.826;6.214;2022-10-13T12:21:19;28.25;;;25.27;;
54937;SDS011;52756;52.826;6.214;2022-10-13T12:23:50;23.17;;;20.83;;
54937;SDS011;52756;52.826;6.214;2022-10-13T12:26:17;23.42;;;20.23;;
54937;SDS011;52756;52.826;6.214;2022-10-13T12:28:52;20.92;;;18.67;;
54937;SDS011;52756;52.826;6.214;2022-10-13T12:31:21;21.90;;;19.70;;
54937;SDS011;52756;52.826;6.214;2022-10-13T12:33:57;21.88;;;18.55;;
54937;SDS011;52756;52.826;6.214;2022-10-13T12:36:30;23.83;;;21.33;;
54937;SDS011;52756;52.826;6.214;2022-10-13T12:39:05;24.58;;;21.10;;
54937;SDS011;52756;52.826;6.214;2022-10-13T12:41:36;22.95;;;19.92;;
54937;SDS011;52756;52.826;6.214;2022-10-13T12:44:06;21.05;;;18.90;;
54937;SDS011;52756;52.826;6.214;2022-10-13T12:49:19;20.48;;;18.38;;
54937;SDS011;52756;52.826;6.214;2022-10-13T12:51:47;22.20;;;19.80;;
54937;SDS011;52756;52.826;6.214;2022-10-13T12:54:20;24.02;;;21.02;;
54937;SDS011;52756;52.826;6.214;2022-10-13T12:56:57;19.33;;;17.30;;
54937;SDS011;52756;52.826;6.214;2022-10-13T12:59:30;21.45;;;18.63;;
54937;SDS011;52756;52.826;6.214;2022-10-13T13:01:57;19.90;;;17.92;;
54937;SDS011;52756;52.826;6.214;2022-10-13T13:04:37;21.30;;;19.02;;
54937;SDS011;52756;52.826;6.214;2022-10-13T13:12:33;20.77;;;18.38;;
54937;SDS011;52756;52.826;6.214;2022-10-13T13:17:44;20.55;;;17.38;;
54937;SDS011;52756;52.826;6.214;2022-10-13T13:20:27;19.33;;;17.33;;
54937;SDS011;52756;52.826;6.214;2022-10-13T13:22:55;19.58;;;17.55;;
54937;SDS011;52756;52.826;6.214;2022-10-13T13:25:21;17.90;;;16.10;;
54937;SDS011;52756;52.826;6.214;2022-10-13T13:27:47;21.08;;;17.83;;
54937;SDS011;52756;52.826;6.214;2022-10-13T13:30:14;17.80;;;16.00;;
54937;SDS011;52756;52.826;6.214;2022-10-13T13:32:42;18.27;;;16.38;;
54937;SDS011;52756;52.826;6.214;2022-10-13T13:35:08;18.05;;;16.05;;
54937;SDS011;52756;52.826;6.214;2022-10-13T13:37:35;17.70;;;14.88;;
54937;SDS011;52756;52.826;6.214;2022-10-13T13:40:03;15.82;;;14.23;;
54937;SDS011;52756;52.826;6.214;2022-10-13T13:42:30;15.65;;;14.05;;
54937;SDS011;52756;52.826;6.214;2022-10-13T13:44:56;15.48;;;13.68;;
54937;SDS011;52756;52.826;6.214;2022-10-13T13:47:22;19.65;;;17.65;;
54937;SDS011;52756;52.826;6.214;2022-10-13T13:49:51;16.63;;;14.90;;
54937;SDS011;52756;52.826;6.214;2022-10-13T13:52:18;15.98;;;14.35;;
54937;SDS011;52756;52.826;6.214;2022-10-13T13:54:46;19.80;;;17.75;;
54937;SDS011;52756;52.826;6.214;2022-10-13T13:57:13;17.10;;;15.30;;
54937;SDS011;52756;52.826;6.214;2022-10-13T13:59:39;15.80;;;13.65;;
54937;SDS011;52756;52.826;6.214;2022-10-13T14:02:06;13.98;;;12.57;;
54937;SDS011;52756;52.826;6.214;2022-10-13T14:04:37;14.75;;;13.05;;
54937;SDS011;52756;52.826;6.214;2022-10-13T14:07:03;15.25;;;12.68;;
54937;SDS011;52756;52.826;6.214;2022-10-13T14:09:28;16.23;;;12.35;;
54937;SDS011;52756;52.826;6.214;2022-10-13T14:11:54;14.45;;;12.95;;
54937;SDS011;52756;52.826;6.214;2022-10-13T14:14:20;13.77;;;12.23;;
54937;SDS011;52756;52.826;6.214;2022-10-13T14:16:46;12.60;;;11.30;;
54937;SDS011;52756;52.826;6.214;2022-10-13T14:19:11;14.48;;;12.95;;
54937;SDS011;52756;52.826;6.214;2022-10-13T14:21:37;13.43;;;12.00;;
54937;SDS011;52756;52.826;6.214;2022-10-13T14:24:03;14.15;;;12.70;;
54937;SDS011;52756;52.826;6.214;2022-10-13T14:26:29;15.13;;;12.63;;
54937;SDS011;52756;52.826;6.214;2022-10-13T14:28:55;14.35;;;12.95;;
54937;SDS011;52756;52.826;6.214;2022-10-13T14:31:22;14.07;;;12.57;;
54937;SDS011;52756;52.826;6.214;2022-10-13T14:33:48;14.82;;;13.30;;
54937;SDS011;52756;52.826;6.214;2022-10-13T14:36:13;13.68;;;12.35;;
54937;SDS011;52756;52.826;6.214;2022-10-13T14:38:39;16.35;;;12.60;;
54937;SDS011;52756;52.826;6.214;2022-10-13T14:41:05;13.98;;;12.57;;
54937;SDS011;52756;52.826;6.214;2022-10-13T14:43:31;14.38;;;12.27;;
54937;SDS011;52756;52.826;6.214;2022-10-13T14:46:01;13.93;;;12.43;;
54937;SDS011;52756;52.826;6.214;2022-10-13T14:48:30;13.07;;;11.70;;
54937;SDS011;52756;52.826;6.214;2022-10-13T14:51:06;17.98;;;14.57;;
54937;SDS011;52756;52.826;6.214;2022-10-13T14:53:34;13.60;;;11.85;;
54937;SDS011;52756;52.826;6.214;2022-10-13T14:56:01;15.25;;;12.10;;
54937;SDS011;52756;52.826;6.214;2022-10-13T14:58:27;11.02;;;10.00;;
54937;SDS011;52756;52.826;6.214;2022-10-13T15:00:53;13.35;;;12.05;;
54937;SDS011;52756;52.826;6.214;2022-10-13T15:03:20;13.90;;;11.57;;
54937;SDS011;52756;52.826;6.214;2022-10-13T15:05:46;13.27;;;11.98;;
54937;SDS011;52756;52.826;6.214;2022-10-13T15:08:12;12.63;;;11.32;;
54937;SDS011;52756;52.826;6.214;2022-10-13T15:10:38;14.43;;;11.48;;
54937;SDS011;52756;52.826;6.214;2022-10-13T15:13:03;13.65;;;12.35;;
54937;SDS011;52756;52.826;6.214;2022-10-13T15:15:29;13.25;;;11.82;;
54937;SDS011;52756;52.826;6.214;2022-10-13T15:17:55;15.02;;;12.55;;
54937;SDS011;52756;52.826;6.214;2022-10-13T15:20:20;13.43;;;12.02;;
54937;SDS011;52756;52.826;6.214;2022-10-13T15:22:46;12.52;;;11.32;;
54937;SDS011;52756;52.826;6.214;2022-10-13T15:25:12;13.43;;;12.13;;
54937;SDS011;52756;52.826;6.214;2022-10-13T15:27:38;14.02;;;12.52;;
54937;SDS011;52756;52.826;6.214;2022-10-13T15:30:07;12.60;;;11.40;;
54937;SDS011;52756;52.826;6.214;2022-10-13T15:32:33;15.95;;;12.20;;
54937;SDS011;52756;52.826;6.214;2022-10-13T15:34:59;12.18;;;10.90;;
54937;SDS011;52756;52.826;6.214;2022-10-13T15:37:24;11.80;;;10.48;;
54937;SDS011;52756;52.826;6.214;2022-10-13T15:39:50;12.75;;;11.45;;
54937;SDS011;52756;52.826;6.214;2022-10-13T15:42:16;16.95;;;13.65;;
54937;SDS011;52756;52.826;6.214;2022-10-13T15:44:41;13.73;;;12.43;;
54937;SDS011;52756;52.826;6.214;2022-10-13T15:47:07;16.70;;;14.60;;
54937;SDS011;52756;52.826;6.214;2022-10-13T15:49:34;14.32;;;12.70;;
54937;SDS011;52756;52.826;6.214;2022-10-13T15:52:03;18.63;;;13.27;;
54937;SDS011;52756;52.826;6.214;2022-10-13T15:54:29;14.65;;;12.98;;
54937;SDS011;52756;52.826;6.214;2022-10-13T15:56:55;15.88;;;14.30;;
54937;SDS011;52756;52.826;6.214;2022-10-13T15:59:20;13.38;;;12.07;;
54937;SDS011;52756;52.826;6.214;2022-10-13T16:01:46;14.02;;;12.00;;
54937;SDS011;52756;52.826;6.214;2022-10-13T16:04:12;13.65;;;12.18;;
54937;SDS011;52756;52.826;6.214;2022-10-13T16:06:37;12.60;;;10.82;;
54937;SDS011;52756;52.826;6.214;2022-10-13T16:09:03;11.38;;;10.23;;